Huimin, China
Current Conditions -  °F | °C
As of 4:00 AM on Tuesday 25 Nov 2014 (Local Time) from ZSJN Reporting Station
Haze Haze  
Wind Chill: 32°   Ceiling: Unl
Heat Index: 32°   Visibility: 3mi
Dew Point: 30°   Wind: 2mph
Humidity: 93%   Direction: 80°E
Pressure: 30.21"   Gusts: NA
Location:  37.5°N, 117.53°E
Report Text: ZSJN 242000Z 08001MPS 5000 BR NSC 00/M01 Q1023 NOSIG
Loading
Personal Weather Stations






























Interactive Weather Map New forecast layout! Learn more

10-Day Weather Forecast

Advertisements
Track Severe Weather on mobile